Alice, Texas
Current Conditions -  °F | °C
As of 11:53 PM on Sunday 19 Oct 2014 (Local Time) from KALI Reporting Station
Broken Clouds Broken Clouds  
Wind Chill: 22°   Ceiling: 6000
Heat Index: 22°   Visibility: 10mi
Dew Point: 20°   Wind: 5mph
Humidity: 87%   Direction: 40°NE
Pressure: 30"   Gusts: NA
Location:  27.75°N, 98.06°W
Report Text: KALI 200453Z AUTO 04004KT 10SM BKN060 22/20 A3000 RMK AO2 SLP156 T02220200 $
Loading
Personal Weather Stations






























Interactive Weather Map
Tropical Storm Tracking
New forecast layout! Learn more

10-Day Weather Forecast

Advertisements
Track Severe Weather on mobile